Time;durP1;ratioP1;P1;durP2;ratioP2;P2;SDS_P1;SDS_P2;PMS_P1;PMS_P2;Temp;Humidity;BMP_temperature;BMP_pressure;BME280_temperature;BME280_humidity;BME280_pressure;Samples;Min_cycle;Max_cycle;Signal;HPM_P1;HPM_P2
2022/03/12 00:00:48;;;;;;;32.97;14.73;;;0.10;53.40;;;;;;10437794;28;20211;-91
2022/03/12 00:06:10;;;;;;;31.63;15.33;;;0.10;54.80;;;;;;10436939;28;20222;-83
2022/03/12 00:11:34;;;;;;;27.50;14.93;;;0.00;52.60;;;;;;10439824;28;20202;-79
2022/03/12 00:16:57;;;;;;;32.57;14.87;;;0.00;52.00;;;;;;10440869;28;20208;-77
2022/03/12 00:22:20;;;;;;;27.90;13.93;;;0.00;53.50;;;;;;10440005;28;20194;-92
2022/03/12 00:27:41;;;;;;;32.53;14.60;;;-0.10;54.60;;;;;;10439335;28;20295;-81
2022/03/12 00:33:06;;;;;;;27.40;13.63;;;-0.10;54.90;;;;;;10440342;28;20393;-91
2022/03/12 00:38:29;;;;;;;30.20;14.87;;;-0.10;54.90;;;;;;10439407;28;20504;-90
2022/03/12 00:43:52;;;;;;;27.33;14.23;;;-0.10;53.80;;;;;;10439211;28;20248;-89
2022/03/12 00:49:15;;;;;;;31.17;13.83;;;-0.10;52.60;;;;;;10439937;28;20266;-90
2022/03/12 00:54:37;;;;;;;30.03;13.77;;;-0.20;52.90;;;;;;10438630;28;20202;-81
2022/03/12 00:59:59;;;;;;;25.73;13.13;;;-0.20;53.40;;;;;;10439210;28;20204;-90
2022/03/12 01:05:48;;;;;;;24.73;13.20;;;-0.20;53.00;;;;;;10438603;28;20227;-85
2022/03/12 01:11:12;;;;;;;31.63;14.53;;;-0.10;53.40;;;;;;10437903;28;20252;-91
2022/03/12 01:16:36;;;;;;;26.27;14.00;;;-0.20;53.70;;;;;;10424175;28;20353;-75
2022/03/12 01:21:58;;;;;;;31.57;14.70;;;-0.20;53.00;;;;;;10438529;28;20247;-77
2022/03/12 01:27:19;;;;;;;29.53;14.90;;;-0.20;52.10;;;;;;10438222;28;20224;-78
2022/03/12 01:32:42;;;;;;;28.03;14.80;;;-0.30;53.50;;;;;;10437460;28;20193;-86
2022/03/12 01:38:04;;;;;;;31.37;14.97;;;-0.50;52.90;;;;;;11364456;23;20294;-79
2022/03/12 01:43:27;;;;;;;32.47;14.70;;;-0.40;53.20;;;;;;10313352;28;20204;-78
2022/03/12 01:48:50;;;;;;;33.67;15.37;;;-0.40;53.60;;;;;;10303171;28;20227;-81
2022/03/12 01:54:26;;;;;;;27.93;14.73;;;-0.40;54.50;;;;;;10300228;28;20386;-81
2022/03/12 01:59:49;;;;;;;31.63;14.73;;;-0.50;55.30;;;;;;10337450;28;20199;-79
2022/03/12 02:05:14;;;;;;;29.00;14.63;;;-0.50;54.50;;;;;;10354067;28;20225;-78
2022/03/12 02:10:36;;;;;;;30.70;15.97;;;-0.50;55.20;;;;;;10341951;28;20242;-79
2022/03/12 02:16:07;;;;;;;31.17;14.13;;;-0.60;55.50;;;;;;10348768;28;20193;-78
2022/03/12 02:21:34;;;;;;;32.00;14.93;;;-0.60;56.90;;;;;;10376073;28;20197;-79
2022/03/12 02:26:59;;;;;;;29.97;15.23;;;-0.70;55.70;;;;;;10361678;28;20238;-79
2022/03/12 02:32:21;;;;;;;31.90;15.43;;;-0.70;56.70;;;;;;10375617;28;20388;-79
2022/03/12 02:37:47;;;;;;;36.90;17.00;;;-0.70;59.40;;;;;;10347772;28;20202;-77
2022/03/12 02:43:13;;;;;;;35.93;17.03;;;-0.70;58.30;;;;;;10332719;28;20206;-80
2022/03/12 02:48:35;;;;;;;32.60;16.20;;;-0.80;59.10;;;;;;10361055;28;20301;-78
2022/03/12 02:53:57;;;;;;;33.80;16.07;;;-0.80;59.00;;;;;;10316967;28;20195;-78
2022/03/12 02:59:18;;;;;;;35.17;16.10;;;-0.80;58.70;;;;;;10307971;28;20489;-78
2022/03/12 03:04:41;;;;;;;29.37;15.80;;;-0.80;59.00;;;;;;10306678;28;20450;-78
2022/03/12 03:10:05;;;;;;;37.07;17.30;;;-0.80;60.50;;;;;;10319935;28;20229;-80
2022/03/12 03:15:27;;;;;;;30.97;16.17;;;-0.90;59.80;;;;;;10324198;28;20362;-80
2022/03/12 03:20:52;;;;;;;37.77;16.83;;;-0.90;59.80;;;;;;10373290;28;20229;-80
2022/03/12 03:26:38;;;;;;;37.67;16.37;;;-1.00;63.00;;;;;;10358526;28;20425;-80
2022/03/12 03:32:02;;;;;;;42.23;19.07;;;-1.00;62.10;;;;;;10314684;28;20270;-80
2022/03/12 03:37:24;;;;;;;39.13;18.77;;;-1.10;62.60;;;;;;10305625;28;20209;-80
2022/03/12 03:42:47;;;;;;;39.53;18.43;;;-1.10;64.60;;;;;;10347960;28;20205;-80
2022/03/12 03:48:16;;;;;;;41.53;18.60;;;-1.10;65.00;;;;;;10386106;28;20275;-80
2022/03/12 03:53:39;;;;;;;37.63;16.33;;;-1.20;65.90;;;;;;10372274;28;20199;-80
2022/03/12 03:59:01;;;;;;;36.40;16.60;;;-1.20;67.60;;;;;;10365694;28;20536;-80
2022/03/12 04:04:25;;;;;;;37.73;16.77;;;-1.30;69.20;;;;;;10304418;28;20246;-80
2022/03/12 04:09:47;;;;;;;35.93;17.63;;;-1.30;72.50;;;;;;10304429;28;20235;-80
2022/03/12 04:15:10;;;;;;;36.57;16.40;;;-1.40;74.80;;;;;;10317836;28;20509;-80
2022/03/12 04:20:34;;;;;;;33.77;16.70;;;-1.40;76.30;;;;;;10317275;28;20205;-80
2022/03/12 04:25:58;;;;;;;33.97;16.33;;;-1.40;81.10;;;;;;10316454;28;20231;-79
2022/03/12 04:31:20;;;;;;;29.77;16.03;;;-1.50;80.80;;;;;;10314933;28;20485;-80
2022/03/12 04:36:44;;;;;;;33.27;16.80;;;-1.60;85.10;;;;;;10316547;28;20206;-80
2022/03/12 04:42:08;;;;;;;36.07;16.70;;;-1.80;87.20;;;;;;10340051;28;20289;-80
2022/03/12 04:47:30;;;;;;;34.50;16.13;;;-1.80;87.70;;;;;;10397098;28;20232;-80
2022/03/12 04:52:59;;;;;;;36.83;16.93;;;-1.80;88.50;;;;;;10369837;28;20491;-80
2022/03/12 04:58:22;;;;;;;36.87;16.43;;;-1.90;91.60;;;;;;10375819;28;20194;-80
2022/03/12 05:03:45;;;;;;;36.77;17.90;;;-1.90;92.50;;;;;;10342356;28;20194;-80
2022/03/12 05:09:07;;;;;;;36.47;17.13;;;;;;;;;;10355478;28;20229;-80
2022/03/12 05:14:35;;;;;;;38.33;18.40;;;-1.90;92.80;;;;;;10342461;28;20206;-80
2022/03/12 05:19:58;;;;;;;43.33;18.83;;;-2.00;95.20;;;;;;10355039;28;20228;-80
2022/03/12 05:25:21;;;;;;;40.97;19.87;;;-2.00;95.20;;;;;;10333249;28;20282;-79
2022/03/12 05:30:45;;;;;;;46.73;21.80;;;-2.00;94.00;;;;;;10301504;28;20198;-80
2022/03/12 05:36:09;;;;;;;45.83;22.60;;;-1.90;94.60;;;;;;10301373;28;20200;-80
2022/03/12 05:41:41;;;;;;;43.67;21.93;;;-1.90;94.70;;;;;;10330950;28;20241;-80
2022/03/12 05:47:03;;;;;;;50.63;22.30;;;-1.80;93.50;;;;;;10394954;28;20235;-80
2022/03/12 05:52:25;;;;;;;55.90;24.60;;;-1.80;92.10;;;;;;10380958;28;20398;-80
2022/03/12 05:57:51;;;;;;;52.53;23.47;;;-1.70;91.10;;;;;;10362456;28;20488;-80
2022/03/12 06:03:13;;;;;;;38.17;20.97;;;-1.60;90.10;;;;;;10340660;28;20202;-80
2022/03/12 06:08:35;;;;;;;47.83;23.77;;;-1.50;88.10;;;;;;10311862;28;20453;-80
2022/03/12 06:14:00;;;;;;;49.03;24.13;;;-1.40;88.70;;;;;;10314796;28;20194;-80
2022/03/12 06:19:23;;;;;;;46.23;23.37;;;-1.30;88.20;;;;;;10300532;28;20199;-80
2022/03/12 06:24:48;;;;;;;48.60;22.07;;;-1.20;83.20;;;;;;10317093;28;20571;-80
2022/03/12 06:30:12;;;;;;;44.13;21.23;;;-1.10;84.10;;;;;;10329871;28;20472;-80
2022/03/12 06:35:36;;;;;;;42.77;19.57;;;-0.90;82.80;;;;;;10300045;28;20199;-80
2022/03/12 06:40:59;;;;;;;45.23;19.07;;;-0.70;80.10;;;;;;10334397;28;20238;-80
2022/03/12 06:46:21;;;;;;;39.57;17.17;;;-0.60;76.30;;;;;;10379973;28;20224;-80
2022/03/12 06:51:44;;;;;;;38.27;17.83;;;-0.30;71.70;;;;;;10380177;28;20200;-80
2022/03/12 06:57:06;;;;;;;48.63;23.43;;;0.10;68.40;;;;;;10377419;28;20209;-79
2022/03/12 07:02:28;;;;;;;34.83;16.73;;;1.00;58.00;;;;;;10343142;28;20202;-80
2022/03/12 07:07:51;;;;;;;31.20;16.90;;;3.30;43.60;;;;;;10346717;28;20234;-80
2022/03/12 07:13:14;;;;;;;34.10;17.93;;;5.20;34.80;;;;;;10346313;28;20195;-80
2022/03/12 07:18:38;;;;;;;31.70;16.48;;;6.70;28.40;;;;;;10346454;28;20598;-79
2022/03/12 07:24:01;;;;;;;24.92;14.30;;;7.80;25.00;;;;;;10360004;28;20511;-80
2022/03/12 07:29:26;;;;;;;29.67;15.82;;;8.70;22.80;;;;;;10340034;28;20247;-80
2022/03/12 07:34:49;;;;;;;27.67;14.15;;;9.70;19.50;;;;;;10305641;28;20201;-80
2022/03/12 07:40:14;;;;;;;23.67;12.27;;;10.00;18.00;;;;;;10327516;28;20229;-80
2022/03/12 07:45:36;;;;;;;21.73;12.20;;;10.50;17.00;;;;;;10305309;28;20199;-80
2022/03/12 07:51:01;;;;;;;20.92;10.80;;;11.20;16.10;;;;;;10318514;28;20204;-79
2022/03/12 07:56:23;;;;;;;23.77;12.20;;;11.40;15.30;;;;;;10318465;28;20196;-80
2022/03/12 08:01:45;;;;;;;23.67;12.30;;;11.70;14.50;;;;;;10319356;28;20507;-80
2022/03/12 08:07:10;;;;;;;22.83;11.52;;;12.20;13.50;;;;;;10304417;28;20249;-80
2022/03/12 08:12:38;;;;;;;17.67;11.15;;;12.10;13.40;;;;;;10317244;28;20209;-80
2022/03/12 08:18:05;;;;;;;21.80;12.52;;;12.40;12.50;;;;;;10303971;28;20203;-80
2022/03/12 08:23:27;;;;;;;24.48;14.85;;;12.90;12.70;;;;;;10303868;28;20202;-80
2022/03/12 08:28:49;;;;;;;30.75;14.90;;;12.80;12.20;;;;;;10334197;28;20232;-80
2022/03/12 08:34:13;;;;;;;17.23;10.63;;;13.50;11.80;;;;;;10357555;28;20201;-79
2022/03/12 08:39:35;;;;;;;23.23;13.63;;;14.00;10.00;;;;;;10345430;28;20336;-80
2022/03/12 08:44:59;;;;;;;21.60;13.13;;;14.40;9.80;;;;;;10343341;28;20380;-80
2022/03/12 08:50:22;;;;;;;16.85;10.65;;;14.70;8.90;;;;;;10356528;28;20236;-80
2022/03/12 08:55:44;;;;;;;27.55;12.85;;;15.20;8.50;;;;;;10356080;28;20198;-80
2022/03/12 09:01:08;;;;;;;18.90;11.85;;;15.40;8.20;;;;;;10341662;28;20202;-79
2022/03/12 09:06:32;;;;;;;17.52;10.20;;;15.70;7.90;;;;;;10341805;28;20471;-79
2022/03/12 09:11:55;;;;;;;17.45;9.02;;;16.10;7.60;;;;;;10341186;28;20365;-80
2022/03/12 09:17:17;;;;;;;16.95;9.32;;;16.10;7.30;;;;;;10341007;28;20260;-81
2022/03/12 09:22:40;;;;;;;16.35;9.48;;;16.70;6.80;;;;;;10341147;28;20197;-81
2022/03/12 09:28:02;;;;;;;19.45;9.95;;;16.50;7.10;;;;;;10340738;28;20284;-81
2022/03/12 09:33:24;;;;;;;11.77;7.30;;;16.50;6.70;;;;;;10356037;28;20194;-81
2022/03/12 09:38:46;;;;;;;16.50;9.50;;;16.50;6.10;;;;;;10340967;28;20198;-81
2022/03/12 09:44:09;;;;;;;25.23;11.95;;;16.80;5.70;;;;;;10384552;28;20295;-81
2022/03/12 09:49:35;;;;;;;12.27;8.35;;;17.20;5.90;;;;;;10367778;28;20303;-81
2022/03/12 09:54:57;;;;;;;16.35;11.07;;;17.40;5.30;;;;;;10367721;28;20193;-81
2022/03/12 10:00:19;;;;;;;11.27;7.18;;;18.00;4.80;;;;;;10313629;28;20190;-81
2022/03/12 10:05:42;;;;;;;33.28;15.68;;;17.70;4.50;;;;;;10313458;28;20229;-81
2022/03/12 10:11:05;;;;;;;18.52;8.32;;;18.00;3.60;;;;;;10299954;28;20204;-81
2022/03/12 10:16:29;;;;;;;12.63;8.68;;;18.20;3.60;;;;;;10313644;28;20199;-81
2022/03/12 10:21:52;;;;;;;11.93;6.53;;;18.30;3.30;;;;;;10313111;28;20203;-82
2022/03/12 10:27:14;;;;;;;10.35;6.43;;;17.90;3.40;;;;;;10321349;28;20217;-81
2022/03/12 10:32:45;;;;;;;24.15;12.70;;;18.10;3.80;;;;;;10340937;28;20206;-81
2022/03/12 10:38:13;;;;;;;33.70;13.63;;;18.40;3.10;;;;;;10346220;28;20281;-81
2022/03/12 10:43:46;;;;;;;17.30;7.63;;;18.30;3.20;;;;;;10373760;28;20236;-82
2022/03/12 10:49:09;;;;;;;12.20;6.90;;;18.50;2.80;;;;;;10373991;28;20449;-82
2022/03/12 10:54:30;;;;;;;15.85;8.68;;;19.10;2.90;;;;;;10401352;28;20196;-82
2022/03/12 10:59:54;;;;;;;15.90;8.23;;;19.70;3.00;;;;;;10368081;28;20190;-82
2022/03/12 11:05:35;;;;;;;8.55;6.05;;;19.80;3.00;;;;;;10347593;28;20198;-82
2022/03/12 11:11:00;;;;;;;10.73;6.57;;;19.40;3.20;;;;;;10346765;28;20201;-82
2022/03/12 11:16:29;;;;;;;12.57;6.22;;;19.70;2.80;;;;;;10359926;28;20213;-82
2022/03/12 11:21:52;;;;;;;13.57;6.65;;;19.10;2.90;;;;;;10359527;28;20198;-82
2022/03/12 11:27:29;;;;;;;8.70;5.60;;;19.90;3.00;;;;;;10348592;28;20205;-79
2022/03/12 11:33:04;;;;;;;12.65;5.47;;;20.20;2.40;;;;;;10319082;28;20191;-81
2022/03/12 11:38:27;;;;;;;8.00;5.05;;;20.00;2.30;;;;;;10318760;28;20398;-81
2022/03/12 11:43:49;;;;;;;14.95;9.10;;;19.90;1.10;;;;;;10342202;28;20415;-81
2022/03/12 11:49:11;;;;;;;15.95;8.25;;;20.00;1.20;;;;;;10344208;28;20201;-81
2022/03/12 11:54:40;;;;;;;9.80;5.72;;;20.50;1.30;;;;;;10358669;28;20202;-81
2022/03/12 12:00:10;;;;;;;8.10;4.70;;;20.70;1.00;;;;;;10304150;28;20524;-81
2022/03/12 12:05:35;;;;;;;17.75;11.10;;;20.50;1.00;;;;;;10317595;28;20256;-81
2022/03/12 12:10:58;;;;;;;12.73;7.32;;;20.50;1.30;;;;;;10317461;28;20202;-81
2022/03/12 12:16:22;;;;;;;7.00;5.05;;;;;;;;;;10343257;28;20302;-81
2022/03/12 12:21:45;;;;;;;16.80;8.50;;;20.80;1.00;;;;;;10320131;28;20203;-79
2022/03/12 12:27:09;;;;;;;10.27;6.38;;;20.90;1.80;;;;;;10325389;28;20218;-79
2022/03/12 12:32:42;;;;;;;11.63;7.47;;;20.70;1.30;;;;;;10356643;28;20402;-79
2022/03/12 12:38:09;;;;;;;13.85;6.70;;;20.80;1.60;;;;;;10343291;28;20419;-79
2022/03/12 12:43:37;;;;;;;15.18;8.20;;;20.00;1.90;;;;;;10343310;28;20304;-79
2022/03/12 12:49:05;;;;;;;14.68;7.57;;;19.70;2.40;;;;;;10366118;28;20200;-78
2022/03/12 12:54:46;;;;;;;16.92;8.73;;;19.70;2.30;;;;;;10342274;28;20457;-78
2022/03/12 13:00:20;;;;;;;15.15;7.15;;;19.90;2.30;;;;;;10341277;28;20280;-80
2022/03/12 13:05:54;;;;;;;18.35;10.00;;;19.80;2.40;;;;;;10342734;28;20198;-79
2022/03/12 13:11:32;;;;;;;19.98;9.75;;;19.20;2.30;;;;;;10328483;28;20204;-80
2022/03/12 13:17:03;;;;;;;20.90;10.95;;;18.90;2.60;;;;;;10354618;28;20459;-80
2022/03/12 13:22:41;;;;;;;10.30;7.18;;;18.50;2.50;;;;;;10341822;28;20265;-80
2022/03/12 13:28:03;;;;;;;19.92;8.07;;;19.00;2.40;;;;;;10315072;28;20212;-79
2022/03/12 13:33:26;;;;;;;44.88;17.25;;;18.70;2.10;;;;;;10317532;28;20212;-79
2022/03/12 13:38:50;;;;;;;16.92;9.40;;;18.50;1.80;;;;;;10301439;28;20225;-79
2022/03/12 13:44:14;;;;;;;13.60;6.95;;;18.10;1.80;;;;;;10302637;28;20268;-79
2022/03/12 13:49:42;;;;;;;10.30;6.43;;;18.30;2.00;;;;;;10300731;28;20526;-79
2022/03/12 13:55:07;;;;;;;8.43;5.85;;;18.00;1.80;;;;;;10344402;28;20197;-79
2022/03/12 14:00:32;;;;;;;12.65;7.47;;;17.60;1.70;;;;;;10354080;28;20596;-79
2022/03/12 14:05:54;;;;;;;14.63;8.50;;;16.90;2.00;;;;;;10354108;28;20232;-78
2022/03/12 14:11:34;;;;;;;8.52;4.75;;;16.50;2.20;;;;;;10344189;28;20221;-78
2022/03/12 14:17:00;;;;;;;18.02;8.02;;;15.80;2.40;;;;;;10342830;28;20209;-78
2022/03/12 14:22:22;;;;;;;9.07;5.28;;;14.70;2.80;;;;;;10308560;28;20496;-78
2022/03/12 14:27:48;;;;;;;7.65;4.40;;;14.00;3.00;;;;;;10348566;28;20220;-79
2022/03/12 14:33:11;;;;;;;9.25;5.00;;;13.20;3.20;;;;;;10362889;28;20303;-80
2022/03/12 14:38:34;;;;;;;10.98;5.82;;;12.80;3.50;;;;;;10361476;28;20538;-80
2022/03/12 14:43:56;;;;;;;11.32;6.68;;;12.50;4.50;;;;;;10323154;28;20232;-80
2022/03/12 14:49:35;;;;;;;9.85;6.20;;;12.30;6.70;;;;;;10358039;28;20197;-80
2022/03/12 14:55:04;;;;;;;13.83;6.83;;;11.90;7.00;;;;;;10361387;28;20193;-79
2022/03/12 15:00:28;;;;;;;13.67;7.27;;;11.50;7.50;;;;;;10360834;28;20222;-80
2022/03/12 15:05:50;;;;;;;12.73;7.22;;;11.30;7.90;;;;;;10333674;28;20196;-80
2022/03/12 15:11:13;;;;;;;13.77;7.63;;;11.30;8.20;;;;;;10360401;28;20197;-80
2022/03/12 15:16:36;;;;;;;19.77;9.57;;;11.50;8.50;;;;;;10359541;28;20386;-80
2022/03/12 15:21:58;;;;;;;15.10;8.40;;;11.50;9.00;;;;;;10358999;28;20204;-79
2022/03/12 15:27:28;;;;;;;12.17;7.17;;;11.20;9.30;;;;;;10359362;28;20209;-80
2022/03/12 15:32:50;;;;;;;14.07;8.07;;;10.80;8.80;;;;;;10346002;28;20208;-79
2022/03/12 15:38:13;;;;;;;21.17;7.90;;;10.50;9.90;;;;;;10360300;28;20235;-79
2022/03/12 15:43:37;;;;;;;17.90;7.63;;;10.20;10.90;;;;;;10371607;28;20239;-79
2022/03/12 15:49:01;;;;;;;22.57;10.73;;;10.10;10.60;;;;;;10361772;28;20368;-80
2022/03/12 15:54:24;;;;;;;25.10;10.90;;;9.90;11.30;;;;;;10345336;28;20518;-79
2022/03/12 15:59:46;;;;;;;49.63;23.63;;;9.80;12.50;;;;;;10344946;28;20243;-79
2022/03/12 16:05:09;;;;;;;104.27;45.57;;;9.70;13.30;;;;;;10359475;28;20427;-79
2022/03/12 16:10:35;;;;;;;90.00;48.77;;;9.50;13.90;;;;;;10358274;28;20234;-79
2022/03/12 16:15:59;;;;;;;36.97;20.17;;;9.40;14.40;;;;;;10329177;28;20259;-79
2022/03/12 16:21:21;;;;;;;39.03;20.10;;;9.20;14.90;;;;;;10304549;28;20440;-80
2022/03/12 16:26:45;;;;;;;30.33;15.50;;;9.10;15.20;;;;;;10322757;28;20200;-79
2022/03/12 16:32:07;;;;;;;615.37;339.47;;;8.90;15.80;;;;;;10357045;28;20208;-79
2022/03/12 16:37:32;;;;;;;992.77;644.30;;;8.70;16.20;;;;;;10357332;28;20229;-79
2022/03/12 16:42:55;;;;;;;426.53;267.70;;;8.50;16.60;;;;;;10366935;28;20502;-79
2022/03/12 16:48:19;;;;;;;250.37;170.40;;;8.30;17.20;;;;;;10397715;28;20235;-79
2022/03/12 16:53:41;;;;;;;559.03;380.27;;;8.00;17.50;;;;;;10369514;28;20264;-80
2022/03/12 16:59:04;;;;;;;366.77;252.83;;;7.90;17.70;;;;;;10397176;28;20227;-79
2022/03/12 17:04:26;;;;;;;85.20;45.10;;;7.70;17.90;;;;;;10397722;28;20233;-79
2022/03/12 17:09:48;;;;;;;70.17;31.57;;;7.50;18.00;;;;;;10385774;28;20392;-79
2022/03/12 17:15:10;;;;;;;102.63;39.97;;;7.30;18.30;;;;;;10342431;28;20194;-79
2022/03/12 17:20:33;;;;;;;70.23;32.97;;;7.10;18.80;;;;;;10341465;28;20231;-79
2022/03/12 17:25:57;;;;;;;51.47;27.20;;;6.90;19.20;;;;;;10342328;28;20292;-79
2022/03/12 17:31:22;;;;;;;53.17;25.13;;;6.70;20.00;;;;;;10315075;28;20204;-79
2022/03/12 17:36:46;;;;;;;66.97;29.57;;;6.50;20.30;;;;;;10301127;28;20207;-79
2022/03/12 17:42:08;;;;;;;54.57;27.67;;;6.40;20.80;;;;;;10356611;28;20233;-79
2022/03/12 17:47:31;;;;;;;53.93;27.10;;;6.20;20.90;;;;;;10381043;28;20242;-79
2022/03/12 17:52:53;;;;;;;66.93;28.60;;;6.00;21.60;;;;;;10395097;28;20204;-79
2022/03/12 17:58:19;;;;;;;63.13;30.07;;;5.80;21.70;;;;;;10380950;28;20262;-79
2022/03/12 18:03:41;;;;;;;77.60;32.00;;;5.60;22.60;;;;;;10395037;28;20200;-79
2022/03/12 18:09:05;;;;;;;85.27;40.47;;;5.40;23.10;;;;;;10388611;28;20598;-80
2022/03/12 18:14:28;;;;;;;90.40;43.73;;;5.20;23.50;;;;;;10340555;28;20275;-80
2022/03/12 18:19:51;;;;;;;122.17;53.97;;;;;;;;;;10353767;28;20227;-80
2022/03/12 18:25:16;;;;;;;111.20;55.00;;;4.80;24.00;;;;;;10340578;28;20291;-80
2022/03/12 18:30:39;;;;;;;115.87;52.43;;;4.80;24.50;;;;;;10354212;28;20203;-80
2022/03/12 18:36:00;;;;;;;104.90;47.87;;;4.60;24.70;;;;;;10340003;28;20222;-80
2022/03/12 18:41:23;;;;;;;113.97;50.67;;;4.60;24.80;;;;;;10354463;28;20250;-80
2022/03/12 18:46:46;;;;;;;124.03;51.10;;;4.50;24.80;;;;;;10340406;28;20202;-80
2022/03/12 18:52:10;;;;;;;109.13;48.47;;;4.40;24.90;;;;;;10316483;28;20420;-80
2022/03/12 18:57:34;;;;;;;112.13;46.67;;;4.30;25.40;;;;;;10317829;28;20439;-79
2022/03/12 19:02:56;;;;;;;122.70;51.00;;;4.10;25.90;;;;;;10306598;28;20205;-79
2022/03/12 19:08:20;;;;;;;136.27;55.13;;;4.10;26.10;;;;;;10307315;28;20195;-80
2022/03/12 19:13:43;;;;;;;132.40;53.20;;;4.10;26.30;;;;;;10306753;28;20208;-80
2022/03/12 19:19:11;;;;;;;133.30;52.40;;;4.00;26.70;;;;;;10333306;28;20395;-80
2022/03/12 19:24:37;;;;;;;130.77;51.87;;;4.10;27.20;;;;;;10308270;28;20259;-79
2022/03/12 19:29:59;;;;;;;179.87;67.83;;;4.00;28.20;;;;;;10346052;28;20246;-80
2022/03/12 19:35:23;;;;;;;194.50;81.23;;;4.00;28.20;;;;;;10359512;28;20208;-80
2022/03/12 19:40:48;;;;;;;221.90;93.27;;;3.90;29.30;;;;;;10344181;28;20245;-80
2022/03/12 19:46:10;;;;;;;235.17;96.70;;;3.80;29.70;;;;;;10372500;28;20194;-80
2022/03/12 19:51:32;;;;;;;235.83;97.00;;;3.70;30.90;;;;;;10372215;28;20237;-80
2022/03/12 19:56:55;;;;;;;256.47;106.07;;;3.60;31.80;;;;;;10385734;28;20213;-80
2022/03/12 20:02:17;;;;;;;265.60;111.33;;;3.30;33.50;;;;;;10371614;28;20201;-79
2022/03/12 20:07:44;;;;;;;280.10;116.17;;;3.20;37.20;;;;;;10384797;28;20205;-79
2022/03/12 20:13:11;;;;;;;304.90;125.77;;;3.10;38.90;;;;;;10360920;28;20201;-79
2022/03/12 20:18:37;;;;;;;317.03;126.60;;;3.10;44.60;;;;;;10357553;28;20238;-80
2022/03/12 20:24:01;;;;;;;303.03;127.03;;;3.00;46.50;;;;;;10343935;28;20198;-80
2022/03/12 20:29:27;;;;;;;289.97;120.07;;;2.90;47.00;;;;;;10343490;28;20212;-80
2022/03/12 20:34:50;;;;;;;271.50;117.33;;;2.90;50.60;;;;;;10344138;28;20193;-78
2022/03/12 20:40:14;;;;;;;226.13;100.03;;;2.80;53.50;;;;;;10349980;28;20243;-78
2022/03/12 20:45:36;;;;;;;228.57;97.07;;;2.70;55.30;;;;;;10319257;28;20202;-78
2022/03/12 20:50:58;;;;;;;214.83;91.50;;;2.70;55.40;;;;;;10364180;28;20207;-81
2022/03/12 20:56:20;;;;;;;199.93;87.33;;;2.60;57.00;;;;;;10342581;28;20562;-80
2022/03/12 21:01:47;;;;;;;175.30;79.27;;;2.60;57.70;;;;;;10342256;28;20225;-80
2022/03/12 21:07:09;;;;;;;178.77;77.33;;;2.40;59.50;;;;;;10342638;28;20510;-80
2022/03/12 21:12:31;;;;;;;158.17;70.17;;;2.30;64.70;;;;;;10355335;28;20212;-79
2022/03/12 21:17:55;;;;;;;156.27;68.37;;;2.20;62.20;;;;;;10346275;28;20213;-79
2022/03/12 21:23:17;;;;;;;176.23;76.77;;;2.30;63.90;;;;;;10301016;28;20213;-80
2022/03/12 21:28:42;;;;;;;183.23;79.67;;;2.30;65.20;;;;;;10315536;28;20202;-80
2022/03/12 21:34:05;;;;;;;171.17;76.70;;;2.30;66.70;;;;;;10301703;28;20268;-81
2022/03/12 21:39:28;;;;;;;170.53;73.97;;;2.20;66.60;;;;;;10303588;28;20295;-81
2022/03/12 21:44:55;;;;;;;166.67;76.20;;;2.10;69.10;;;;;;10316644;28;20205;-81
2022/03/12 21:50:18;;;;;;;152.13;71.17;;;2.20;70.30;;;;;;10342431;28;20509;-80
2022/03/12 21:55:41;;;;;;;159.73;73.23;;;2.10;71.40;;;;;;10341065;28;20309;-80
2022/03/12 22:01:06;;;;;;;180.07;77.53;;;2.00;74.10;;;;;;10354224;28;20248;-81
2022/03/12 22:06:30;;;;;;;186.90;79.60;;;1.90;76.00;;;;;;10354563;28;20193;-80
2022/03/12 22:11:52;;;;;;;219.97;92.57;;;1.90;74.90;;;;;;10340919;28;20223;-80
2022/03/12 22:17:15;;;;;;;215.70;96.27;;;1.80;85.80;;;;;;10353804;28;20193;-81
2022/03/12 22:22:38;;;;;;;215.47;91.40;;;1.70;83.80;;;;;;10354159;28;20231;-81
2022/03/12 22:28:00;;;;;;;203.93;94.30;;;1.70;86.00;;;;;;10340028;28;20214;-81
2022/03/12 22:33:22;;;;;;;224.27;98.03;;;1.70;86.50;;;;;;10326675;28;20388;-80
2022/03/12 22:38:44;;;;;;;212.83;90.27;;;1.60;88.60;;;;;;10321341;28;20411;-81
2022/03/12 22:44:08;;;;;;;199.90;87.10;;;1.50;88.20;;;;;;10323188;28;20323;-81
2022/03/12 22:49:33;;;;;;;200.13;85.30;;;1.50;89.90;;;;;;10321425;28;20194;-80
2022/03/12 22:54:55;;;;;;;184.93;83.97;;;1.40;88.30;;;;;;10320996;28;20651;-80
2022/03/12 23:00:52;;;;;;;196.33;81.90;;;1.20;91.90;;;;;;10306930;28;20461;-81
2022/03/12 23:12:03;;;;;;;178.60;77.63;;;1.20;92.50;;;;;;10321058;28;20429;-80
2022/03/12 23:17:28;;;;;;;170.13;71.93;;;1.10;93.70;;;;;;10329582;28;20220;-80
2022/03/12 23:22:59;;;;;;;159.00;70.50;;;1.10;93.20;;;;;;10345984;28;20208;-81
2022/03/12 23:28:20;;;;;;;152.87;65.67;;;0.90;95.10;;;;;;10314306;28;20209;-80
2022/03/12 23:33:43;;;;;;;152.87;64.67;;;0.90;93.10;;;;;;10306099;28;20209;-80
2022/03/12 23:39:05;;;;;;;151.13;63.53;;;0.90;93.80;;;;;;10305516;28;20252;-80
2022/03/12 23:44:29;;;;;;;149.97;62.57;;;0.90;94.00;;;;;;10356843;28;20203;-80
2022/03/12 23:49:52;;;;;;;144.03;62.10;;;0.90;93.80;;;;;;10331049;28;20202;-80
2022/03/12 23:55:20;;;;;;;145.33;60.93;;;0.90;93.60;;;;;;10318686;28;20580;-82
